createdAt,value
2019-04-11T00:01:35.924Z,2.70
2019-04-11T00:05:39.181Z,2.70
2019-04-11T00:09:49.615Z,2.60
2019-04-11T00:13:59.993Z,2.50
2019-04-11T00:18:10.512Z,2.50
2019-04-11T00:22:21.534Z,2.40
2019-04-11T00:26:32.756Z,2.30
2019-04-11T00:30:44.105Z,2.30
2019-04-11T00:34:55.305Z,2.30
2019-04-11T00:39:08.009Z,2.20
2019-04-11T00:43:28.563Z,2.20
2019-04-11T00:47:31.174Z,2.20
2019-04-11T00:51:42.321Z,2.10
2019-04-11T00:55:53.521Z,2.10
2019-04-11T01:00:07.309Z,2.10
2019-04-11T01:04:18.424Z,2.10
2019-04-11T01:08:29.412Z,2.00
2019-04-11T01:12:40.696Z,2.00
2019-04-11T01:16:57.014Z,2.00
2019-04-11T01:21:08.237Z,1.80
2019-04-11T01:25:18.713Z,1.70
2019-04-11T01:29:28.981Z,1.60
2019-04-11T01:33:40.205Z,1.60
2019-04-11T01:37:50.793Z,1.50
2019-04-11T01:42:02.803Z,1.50
2019-04-11T01:46:14.034Z,1.40
2019-04-11T01:50:27.828Z,1.40
2019-04-11T01:54:39.536Z,1.40
2019-04-11T01:58:53.106Z,1.30
2019-04-11T02:03:06.617Z,1.30
2019-04-11T02:07:18.539Z,1.20
2019-04-11T02:11:29.746Z,1.20
2019-04-11T02:15:40.806Z,1.10
2019-04-11T02:19:52.242Z,1.10
2019-04-11T02:24:07.848Z,1.10
2019-04-11T02:28:20.272Z,1.00
2019-04-11T02:32:31.896Z,1.00
2019-04-11T02:36:42.916Z,0.90
2019-04-11T02:40:57.839Z,0.80
2019-04-11T02:45:21.851Z,0.80
2019-04-11T02:49:21.574Z,0.80
2019-04-11T02:53:34.399Z,0.70
2019-04-11T02:57:45.961Z,0.70
2019-04-11T03:01:58.135Z,0.60
2019-04-11T03:06:09.640Z,0.60
2019-04-11T03:10:21.414Z,0.50
2019-04-11T03:14:46.533Z,0.50
2019-04-11T03:18:59.247Z,0.50
2019-04-11T03:23:00.398Z,0.40
2019-04-11T03:27:09.898Z,0.40
2019-04-11T03:32:04.681Z,0.40
2019-04-11T03:36:27.381Z,0.30
2019-04-11T03:40:07.926Z,0.30
2019-04-11T03:44:04.366Z,0.20
2019-04-11T03:48:23.525Z,0.20
2019-04-11T03:52:23.755Z,0.20
2019-04-11T03:56:35.153Z,0.10
2019-04-11T04:00:50.530Z,0.10
2019-04-11T04:05:01.408Z,0.00
2019-04-11T04:09:13.169Z,0.00
2019-04-11T04:13:26.227Z,0.00
2019-04-11T04:17:41.315Z,-0.10
2019-04-11T04:21:57.482Z,-0.10
2019-04-11T04:26:11.583Z,-0.10
2019-04-11T04:30:21.932Z,-0.10
2019-04-11T04:34:33.786Z,-0.10
2019-04-11T04:38:46.357Z,-0.10
2019-04-11T04:42:59.124Z,0.10
2019-04-11T04:47:19.705Z,0.40
2019-04-11T04:51:24.233Z,0.70
2019-04-11T04:55:34.851Z,1.00
2019-04-11T04:59:46.805Z,1.30
2019-04-11T05:03:58.322Z,1.60
2019-04-11T05:08:10.554Z,1.90
2019-04-11T05:12:22.473Z,2.20
2019-04-11T05:16:33.323Z,2.50
2019-04-11T05:20:44.224Z,2.80
2019-04-11T05:24:55.899Z,3.00
2019-04-11T05:29:06.950Z,3.30
2019-04-11T05:33:17.960Z,3.60
2019-04-11T05:37:29.227Z,3.70
2019-04-11T05:41:42.105Z,3.80
2019-04-11T05:45:54.379Z,3.90
2019-04-11T05:50:10.039Z,3.90
2019-04-11T05:54:20.428Z,4.10
2019-04-11T05:58:32.542Z,4.10
2019-04-11T06:02:45.666Z,4.30
2019-04-11T06:07:07.844Z,4.60
2019-04-11T06:11:26.481Z,4.80
2019-04-11T06:15:42.838Z,4.90
2019-04-11T06:19:56.153Z,4.90
2019-04-11T06:24:18.201Z,5.20
2019-04-11T06:28:30.738Z,5.60
2019-04-11T06:33:00.375Z,5.90
2019-04-11T06:37:13.806Z,6.00
2019-04-11T06:41:28.561Z,6.00
2019-04-11T06:45:57.267Z,6.60
2019-04-11T06:50:13.116Z,7.00
2019-04-11T06:54:37.128Z,7.20
2019-04-11T06:58:52.467Z,7.00
2019-04-11T07:03:05.494Z,6.80
2019-04-11T07:07:18.427Z,7.00
2019-04-11T07:11:30.547Z,7.10
2019-04-11T07:15:42.497Z,7.60
2019-04-11T07:20:00.373Z,7.70
2019-04-11T07:24:28.868Z,7.50
2019-04-11T07:28:43.707Z,7.50
2019-04-11T07:32:55.851Z,7.70
2019-04-11T07:37:25.971Z,7.90
2019-04-11T07:41:39.978Z,8.10
2019-04-11T07:45:56.611Z,8.10
2019-04-11T07:50:10.086Z,7.60
2019-04-11T07:54:20.572Z,7.80
2019-04-11T07:58:33.927Z,7.80
2019-04-11T08:03:04.008Z,7.90
2019-04-11T08:07:28.173Z,8.30
2019-04-11T08:11:40.244Z,8.20
2019-04-11T08:15:57.996Z,8.40
2019-04-11T08:20:26.781Z,8.80
2019-04-11T08:24:42.654Z,8.50
2019-04-11T08:29:05.319Z,8.90
2019-04-11T08:33:08.797Z,9.50
2019-04-11T08:37:36.094Z,8.90
2019-04-11T08:41:57.291Z,8.70
2019-04-11T08:46:10.950Z,8.80
2019-04-11T08:50:26.234Z,9.10
2019-04-11T08:54:39.717Z,9.40
2019-04-11T08:59:18.643Z,9.60
2019-04-11T09:03:56.702Z,9.70
2019-04-11T09:08:14.233Z,8.50
2019-04-11T09:12:24.778Z,8.30
2019-04-11T09:16:54.793Z,8.10
2019-04-11T09:21:08.416Z,7.60
2019-04-11T09:25:27.421Z,7.30
2019-04-11T09:29:42.038Z,7.60
2019-04-11T09:33:55.445Z,7.50
2019-04-11T09:38:08.473Z,7.70
2019-04-11T09:42:38.773Z,8.60
2019-04-11T09:46:54.865Z,8.20
2019-04-11T09:51:17.883Z,7.40
2019-04-11T09:55:45.756Z,7.30
2019-04-11T10:00:01.838Z,7.40
2019-04-11T10:04:15.052Z,7.20
2019-04-11T10:08:27.021Z,7.10
2019-04-11T10:12:42.555Z,7.00
2019-04-11T10:16:58.172Z,7.10
2019-04-11T10:21:10.270Z,7.00
2019-04-11T10:25:25.319Z,6.90
2019-04-11T10:29:38.156Z,7.10
2019-04-11T10:33:50.997Z,6.90
2019-04-11T10:38:02.297Z,7.10
2019-04-11T10:42:14.803Z,7.30
2019-04-11T10:46:33.489Z,7.30
2019-04-11T10:51:01.741Z,7.30
2019-04-11T10:55:13.955Z,7.40
2019-04-11T10:59:27.931Z,7.30
2019-04-11T11:03:47.396Z,7.40
2019-04-11T11:07:59.371Z,7.70
2019-04-11T11:12:13.773Z,7.80
2019-04-11T11:16:27.972Z,7.70
2019-04-11T11:20:55.226Z,7.70
2019-04-11T11:25:24.684Z,7.80
2019-04-11T11:29:54.051Z,7.90
2019-04-11T11:34:07.126Z,8.50
2019-04-11T11:38:19.990Z,9.00
2019-04-11T11:42:42.094Z,8.40
2019-04-11T11:47:10.403Z,8.00
2019-04-11T11:51:23.881Z,7.60
2019-04-11T11:55:39.237Z,7.80
2019-04-11T11:59:52.364Z,7.80
2019-04-11T12:04:23.872Z,7.90
2019-04-11T12:08:51.314Z,7.70
2019-04-11T12:13:07.981Z,7.30
2019-04-11T12:17:31.776Z,7.20
2019-04-11T12:21:41.458Z,7.30
2019-04-11T12:25:51.762Z,7.50
2019-04-11T12:30:05.872Z,7.50
2019-04-11T12:34:24.067Z,7.60
2019-04-11T12:38:54.631Z,7.70
2019-04-11T12:43:05.751Z,7.50
2019-04-11T12:47:20.831Z,7.40
2019-04-11T12:51:49.468Z,7.50
2019-04-11T12:56:18.390Z,7.50
2019-04-11T13:00:30.296Z,7.30
2019-04-11T13:04:44.280Z,7.40
2019-04-11T13:08:57.812Z,7.60
2019-04-11T13:13:28.491Z,7.60
2019-04-11T13:17:42.971Z,7.60
2019-04-11T13:21:58.237Z,7.80
2019-04-11T13:26:25.266Z,7.80
2019-04-11T13:30:49.424Z,7.70
2019-04-11T13:35:17.728Z,7.70
2019-04-11T13:39:28.458Z,7.60
2019-04-11T13:43:43.227Z,7.40
2019-04-11T13:48:11.209Z,7.20
2019-04-11T13:52:38.575Z,7.20
2019-04-11T13:57:06.225Z,7.20
2019-04-11T14:01:16.623Z,7.10
2019-04-11T14:05:28.600Z,7.30
2019-04-11T14:09:50.104Z,7.30
2019-04-11T14:14:03.071Z,7.20
2019-04-11T14:18:15.709Z,7.00
2019-04-11T14:22:29.213Z,7.00
2019-04-11T14:26:41.617Z,6.90
2019-04-11T14:30:59.192Z,6.90
2019-04-11T14:35:15.088Z,6.80
2019-04-11T14:39:27.562Z,6.80
2019-04-11T14:43:39.456Z,6.80
2019-04-11T14:48:07.987Z,6.90
2019-04-11T14:52:21.382Z,7.00
2019-04-11T14:56:36.090Z,6.90
2019-04-11T15:00:53.725Z,6.90
2019-04-11T15:05:06.330Z,6.90
2019-04-11T15:09:34.620Z,6.80
2019-04-11T15:13:48.106Z,6.70
2019-04-11T15:18:07.392Z,6.80
2019-04-11T15:22:28.208Z,6.70
2019-04-11T15:26:40.185Z,6.80
2019-04-11T15:31:07.840Z,6.80
2019-04-11T15:35:18.138Z,6.80
2019-04-11T15:39:46.646Z,6.80
2019-04-11T15:44:04.564Z,6.80
2019-04-11T15:48:17.794Z,6.70
2019-04-11T15:52:28.631Z,6.70
2019-04-11T15:56:41.914Z,6.70
2019-04-11T16:00:57.823Z,6.50
2019-04-11T16:05:15.277Z,6.50
2019-04-11T16:09:26.181Z,6.50
2019-04-11T16:13:44.784Z,6.50
2019-04-11T16:18:02.285Z,6.40
2019-04-11T16:22:20.472Z,6.30
2019-04-11T16:26:35.459Z,6.40
2019-04-11T16:30:47.431Z,6.30
2019-04-11T16:35:05.385Z,6.30
2019-04-11T16:39:33.083Z,6.20
2019-04-11T16:43:45.231Z,6.20
2019-04-11T16:47:57.794Z,6.40
2019-04-11T16:52:08.582Z,6.50
2019-04-11T16:56:20.062Z,6.40
2019-04-11T17:00:30.520Z,6.40
2019-04-11T17:04:40.962Z,6.30
2019-04-11T17:08:56.442Z,6.30
2019-04-11T17:13:06.974Z,6.20
2019-04-11T17:17:17.209Z,6.20
2019-04-11T17:21:28.402Z,6.10
2019-04-11T17:25:38.848Z,6.10
2019-04-11T17:29:49.167Z,6.20
2019-04-11T17:34:01.803Z,6.10
2019-04-11T17:38:11.650Z,6.00
2019-04-11T17:42:21.984Z,5.90
2019-04-11T17:46:34.982Z,5.80
2019-04-11T17:50:45.346Z,5.70
2019-04-11T17:54:55.877Z,5.60
2019-04-11T17:59:06.247Z,5.60
2019-04-11T18:03:17.934Z,5.60
2019-04-11T18:07:28.407Z,5.50
2019-04-11T18:11:38.894Z,5.50
2019-04-11T18:15:49.289Z,5.40
2019-04-11T18:20:00.049Z,5.30
2019-04-11T18:24:12.774Z,5.30
2019-04-11T18:28:23.294Z,5.20
2019-04-11T18:32:33.587Z,5.20
2019-04-11T18:36:43.967Z,5.20
2019-04-11T18:40:56.731Z,5.20
2019-04-11T18:45:09.615Z,5.10
2019-04-11T18:49:23.060Z,5.10
2019-04-11T18:53:33.417Z,5.00
2019-04-11T18:57:43.908Z,5.00
2019-04-11T19:01:54.411Z,5.00
2019-04-11T19:06:04.951Z,5.00
2019-04-11T19:10:16.348Z,4.90
2019-04-11T19:14:26.688Z,4.90
2019-04-11T19:18:38.875Z,4.90
2019-04-11T19:22:49.779Z,4.90
2019-04-11T19:27:01.708Z,4.90
2019-04-11T19:31:14.020Z,4.80
2019-04-11T19:35:24.366Z,4.80
2019-04-11T19:39:34.858Z,4.80
2019-04-11T19:43:48.649Z,4.70
2019-04-11T19:47:57.808Z,4.70
2019-04-11T19:52:08.199Z,4.70
2019-04-11T19:56:23.598Z,4.60
2019-04-11T20:00:35.987Z,4.60
2019-04-11T20:04:46.729Z,4.60
2019-04-11T20:08:58.905Z,4.60
2019-04-11T20:13:09.222Z,4.60
2019-04-11T20:17:19.954Z,4.60
2019-04-11T20:21:32.086Z,4.50
2019-04-11T20:25:45.744Z,4.60
2019-04-11T20:29:55.689Z,4.60
2019-04-11T20:34:07.307Z,4.50
2019-04-11T20:38:22.446Z,4.50
2019-04-11T20:42:32.704Z,4.50
2019-04-11T20:46:43.163Z,4.40
2019-04-11T20:50:55.005Z,4.50
2019-04-11T20:55:09.172Z,4.50
2019-04-11T20:59:19.004Z,4.40
2019-04-11T21:03:31.541Z,4.40
2019-04-11T21:07:41.944Z,4.40
2019-04-11T21:11:52.221Z,4.40
2019-04-11T21:16:04.082Z,4.40
2019-04-11T21:20:17.080Z,4.40
2019-04-11T21:24:30.571Z,4.50
2019-04-11T21:28:39.332Z,4.50
2019-04-11T21:32:50.804Z,4.60
2019-04-11T21:37:02.565Z,4.60
2019-04-11T21:41:13.229Z,4.60
2019-04-11T21:45:23.642Z,4.60
2019-04-11T21:49:36.638Z,4.50
2019-04-11T21:53:46.103Z,4.40
2019-04-11T21:57:57.108Z,4.40
2019-04-11T22:02:09.801Z,4.30
2019-04-11T22:06:20.223Z,4.30
2019-04-11T22:10:30.647Z,4.30
2019-04-11T22:14:42.608Z,4.30
2019-04-11T22:18:52.851Z,4.20
2019-04-11T22:23:03.384Z,4.20
2019-04-11T22:27:13.692Z,4.20
2019-04-11T22:31:25.122Z,4.10
2019-04-11T22:35:36.598Z,4.10
2019-04-11T22:39:50.348Z,4.10
2019-04-11T22:44:01.449Z,4.00
2019-04-11T22:48:11.687Z,3.90
2019-04-11T22:52:22.307Z,3.90
2019-04-11T22:56:32.709Z,3.90
2019-04-11T23:00:45.779Z,3.90
2019-04-11T23:04:57.488Z,3.90
2019-04-11T23:09:12.208Z,3.90
2019-04-11T23:13:22.595Z,3.90
2019-04-11T23:17:34.248Z,3.90
2019-04-11T23:21:44.683Z,3.80
2019-04-11T23:25:55.001Z,3.80
2019-04-11T23:30:07.466Z,3.80
2019-04-11T23:34:19.767Z,3.80
2019-04-11T23:38:29.789Z,3.80
2019-04-11T23:42:40.024Z,3.80
2019-04-11T23:46:51.991Z,3.70
2019-04-11T23:51:02.280Z,3.70
2019-04-11T23:55:12.571Z,3.70
2019-04-11T23:59:23.744Z,3.70
